Pathhead, United Kingdom
Current Conditions -  °F | °C
As of 6:20 AM on Wednesday 28 Jan 2015 (Local Time) from EGPH Reporting Station
Light Rain Light Rain  
Wind Chill:   Ceiling: 3000
Heat Index:   Visibility: 6mi
Dew Point:   Wind: 18mph
Humidity: 93%   Direction: 250°WSW
Pressure: 29.21"   Gusts: NA
Location:  55.86°N, 2.97°W
Report Text: EGPH 280620Z 25016KT 9999 -RA SCT018 BKN030 06/05 Q0989
Loading
Personal Weather Stations






























Interactive Weather Map New forecast layout! Learn more

10-Day Weather Forecast

Advertisements
Track Severe Weather on mobile